sensor_id;sensor_type;location;lat;lon;timestamp;temperature;humidity
25332;DHT22;13284;52.748;13.452;2022-08-21T00:02:22;19.40;99.90
25332;DHT22;13284;52.748;13.452;2022-08-21T00:04:51;19.40;99.90
25332;DHT22;13284;52.748;13.452;2022-08-21T00:07:18;19.30;99.90
25332;DHT22;13284;52.748;13.452;2022-08-21T00:09:44;19.30;99.90
25332;DHT22;13284;52.748;13.452;2022-08-21T00:12:10;19.30;99.90
25332;DHT22;13284;52.748;13.452;2022-08-21T00:14:37;19.40;99.90
25332;DHT22;13284;52.748;13.452;2022-08-21T00:17:03;19.40;99.90
25332;DHT22;13284;52.748;13.452;2022-08-21T00:19:30;19.40;99.90
25332;DHT22;13284;52.748;13.452;2022-08-21T00:21:55;19.40;99.90
25332;DHT22;13284;52.748;13.452;2022-08-21T00:24:22;19.40;99.90
25332;DHT22;13284;52.748;13.452;2022-08-21T00:26:54;19.30;99.90
25332;DHT22;13284;52.748;13.452;2022-08-21T00:29:20;19.20;99.90
25332;DHT22;13284;52.748;13.452;2022-08-21T00:31:46;19.30;99.90
25332;DHT22;13284;52.748;13.452;2022-08-21T00:34:12;19.30;99.90
25332;DHT22;13284;52.748;13.452;2022-08-21T00:36:39;19.30;99.90
25332;DHT22;13284;52.748;13.452;2022-08-21T00:39:05;19.30;99.90
25332;DHT22;13284;52.748;13.452;2022-08-21T00:41:33;19.20;99.90
25332;DHT22;13284;52.748;13.452;2022-08-21T00:43:59;19.20;99.90
25332;DHT22;13284;52.748;13.452;2022-08-21T00:46:27;19.10;99.90
25332;DHT22;13284;52.748;13.452;2022-08-21T00:48:53;19.10;99.90
25332;DHT22;13284;52.748;13.452;2022-08-21T00:51:24;19.10;99.90
25332;DHT22;13284;52.748;13.452;2022-08-21T00:53:57;19.00;99.90
25332;DHT22;13284;52.748;13.452;2022-08-21T00:56:25;18.90;99.90
25332;DHT22;13284;52.748;13.452;2022-08-21T00:58:52;18.90;99.90
25332;DHT22;13284;52.748;13.452;2022-08-21T01:01:19;18.80;99.90
25332;DHT22;13284;52.748;13.452;2022-08-21T01:03:45;18.80;99.90
25332;DHT22;13284;52.748;13.452;2022-08-21T01:06:11;18.80;99.90
25332;DHT22;13284;52.748;13.452;2022-08-21T01:08:38;18.80;99.90
25332;DHT22;13284;52.748;13.452;2022-08-21T01:11:04;18.70;99.90
25332;DHT22;13284;52.748;13.452;2022-08-21T01:13:34;18.70;99.90
25332;DHT22;13284;52.748;13.452;2022-08-21T01:16:02;18.60;99.90
25332;DHT22;13284;52.748;13.452;2022-08-21T01:18:29;18.60;99.90
25332;DHT22;13284;52.748;13.452;2022-08-21T01:21:23;18.50;99.90
25332;DHT22;13284;52.748;13.452;2022-08-21T01:23:52;18.50;99.90
25332;DHT22;13284;52.748;13.452;2022-08-21T01:26:23;18.50;99.90
25332;DHT22;13284;52.748;13.452;2022-08-21T01:28:54;18.40;99.90
25332;DHT22;13284;52.748;13.452;2022-08-21T01:31:22;18.30;99.90
25332;DHT22;13284;52.748;13.452;2022-08-21T01:33:48;18.40;99.90
25332;DHT22;13284;52.748;13.452;2022-08-21T01:36:14;18.30;99.90
25332;DHT22;13284;52.748;13.452;2022-08-21T01:38:39;18.20;99.90
25332;DHT22;13284;52.748;13.452;2022-08-21T01:41:05;18.20;99.90
25332;DHT22;13284;52.748;13.452;2022-08-21T01:43:31;18.20;99.90
25332;DHT22;13284;52.748;13.452;2022-08-21T01:45:57;18.10;99.90
25332;DHT22;13284;52.748;13.452;2022-08-21T01:48:22;18.10;99.90
25332;DHT22;13284;52.748;13.452;2022-08-21T01:50:50;18.10;99.90
25332;DHT22;13284;52.748;13.452;2022-08-21T01:53:16;18.10;99.90
25332;DHT22;13284;52.748;13.452;2022-08-21T01:55:43;18.00;99.90
25332;DHT22;13284;52.748;13.452;2022-08-21T01:58:43;18.00;99.90
25332;DHT22;13284;52.748;13.452;2022-08-21T02:01:10;18.00;99.90
25332;DHT22;13284;52.748;13.452;2022-08-21T02:03:36;18.00;99.90
25332;DHT22;13284;52.748;13.452;2022-08-21T02:06:03;18.00;99.90
25332;DHT22;13284;52.748;13.452;2022-08-21T02:08:29;17.90;99.90
25332;DHT22;13284;52.748;13.452;2022-08-21T02:10:54;17.80;99.90
25332;DHT22;13284;52.748;13.452;2022-08-21T02:13:20;17.80;99.90
25332;DHT22;13284;52.748;13.452;2022-08-21T02:15:46;17.80;99.90
25332;DHT22;13284;52.748;13.452;2022-08-21T02:18:12;17.70;99.90
25332;DHT22;13284;52.748;13.452;2022-08-21T02:20:41;17.70;99.90
25332;DHT22;13284;52.748;13.452;2022-08-21T02:23:08;17.70;99.90
25332;DHT22;13284;52.748;13.452;2022-08-21T02:25:35;17.60;99.90
25332;DHT22;13284;52.748;13.452;2022-08-21T02:28:09;17.70;99.90
25332;DHT22;13284;52.748;13.452;2022-08-21T02:30:39;17.60;99.90
25332;DHT22;13284;52.748;13.452;2022-08-21T02:33:06;17.60;99.90
25332;DHT22;13284;52.748;13.452;2022-08-21T02:35:34;17.50;99.90
25332;DHT22;13284;52.748;13.452;2022-08-21T02:38:03;17.50;99.90
25332;DHT22;13284;52.748;13.452;2022-08-21T02:40:35;17.50;99.90
25332;DHT22;13284;52.748;13.452;2022-08-21T02:43:02;17.40;99.90
25332;DHT22;13284;52.748;13.452;2022-08-21T02:45:29;17.40;99.90
25332;DHT22;13284;52.748;13.452;2022-08-21T02:47:57;17.40;99.90
25332;DHT22;13284;52.748;13.452;2022-08-21T02:50:30;17.40;99.90
25332;DHT22;13284;52.748;13.452;2022-08-21T02:52:56;17.40;99.90
25332;DHT22;13284;52.748;13.452;2022-08-21T02:55:24;17.40;99.90
25332;DHT22;13284;52.748;13.452;2022-08-21T02:57:51;17.30;99.90
25332;DHT22;13284;52.748;13.452;2022-08-21T03:00:18;17.30;99.90
25332;DHT22;13284;52.748;13.452;2022-08-21T03:02:46;17.30;99.90
25332;DHT22;13284;52.748;13.452;2022-08-21T03:05:12;17.20;99.90
25332;DHT22;13284;52.748;13.452;2022-08-21T03:07:39;17.20;99.90
25332;DHT22;13284;52.748;13.452;2022-08-21T03:10:05;17.10;99.90
25332;DHT22;13284;52.748;13.452;2022-08-21T03:12:33;17.10;99.90
25332;DHT22;13284;52.748;13.452;2022-08-21T03:15:02;17.20;99.90
25332;DHT22;13284;52.748;13.452;2022-08-21T03:17:28;17.10;99.90
25332;DHT22;13284;52.748;13.452;2022-08-21T03:19:54;17.10;99.90
25332;DHT22;13284;52.748;13.452;2022-08-21T03:22:19;17.10;99.90
25332;DHT22;13284;52.748;13.452;2022-08-21T03:24:45;17.10;99.90
25332;DHT22;13284;52.748;13.452;2022-08-21T03:27:11;17.10;99.90
25332;DHT22;13284;52.748;13.452;2022-08-21T03:29:38;17.00;99.90
25332;DHT22;13284;52.748;13.452;2022-08-21T03:32:04;17.00;99.90
25332;DHT22;13284;52.748;13.452;2022-08-21T03:34:30;17.00;99.90
25332;DHT22;13284;52.748;13.452;2022-08-21T03:36:55;17.00;99.90
25332;DHT22;13284;52.748;13.452;2022-08-21T03:39:21;16.90;99.90
25332;DHT22;13284;52.748;13.452;2022-08-21T03:41:49;16.90;99.90
25332;DHT22;13284;52.748;13.452;2022-08-21T03:44:14;16.90;99.90
25332;DHT22;13284;52.748;13.452;2022-08-21T03:46:40;16.90;99.90
25332;DHT22;13284;52.748;13.452;2022-08-21T03:49:08;16.80;99.90
25332;DHT22;13284;52.748;13.452;2022-08-21T03:51:36;16.80;99.90
25332;DHT22;13284;52.748;13.452;2022-08-21T03:54:02;16.80;99.90
25332;DHT22;13284;52.748;13.452;2022-08-21T03:56:28;16.80;99.90
25332;DHT22;13284;52.748;13.452;2022-08-21T03:58:54;16.80;99.90
25332;DHT22;13284;52.748;13.452;2022-08-21T04:01:19;16.70;99.90
25332;DHT22;13284;52.748;13.452;2022-08-21T04:03:45;16.70;99.90
25332;DHT22;13284;52.748;13.452;2022-08-21T04:06:10;16.70;99.90
25332;DHT22;13284;52.748;13.452;2022-08-21T04:08:36;16.70;99.90
25332;DHT22;13284;52.748;13.452;2022-08-21T04:11:02;16.60;99.90
25332;DHT22;13284;52.748;13.452;2022-08-21T04:13:29;16.60;99.90
25332;DHT22;13284;52.748;13.452;2022-08-21T04:15:55;16.60;99.90
25332;DHT22;13284;52.748;13.452;2022-08-21T04:18:20;16.60;99.90
25332;DHT22;13284;52.748;13.452;2022-08-21T04:20:49;16.60;99.90
25332;DHT22;13284;52.748;13.452;2022-08-21T04:23:16;16.60;99.90
25332;DHT22;13284;52.748;13.452;2022-08-21T04:25:41;16.70;99.90
25332;DHT22;13284;52.748;13.452;2022-08-21T04:28:07;16.70;99.90
25332;DHT22;13284;52.748;13.452;2022-08-21T04:30:32;16.70;99.90
25332;DHT22;13284;52.748;13.452;2022-08-21T04:32:58;16.70;99.90
25332;DHT22;13284;52.748;13.452;2022-08-21T04:35:26;16.70;99.90
25332;DHT22;13284;52.748;13.452;2022-08-21T04:37:51;16.70;99.90
25332;DHT22;13284;52.748;13.452;2022-08-21T04:40:18;16.70;99.90
25332;DHT22;13284;52.748;13.452;2022-08-21T04:42:50;16.70;99.90
25332;DHT22;13284;52.748;13.452;2022-08-21T04:45:19;16.60;99.90
25332;DHT22;13284;52.748;13.452;2022-08-21T04:47:48;16.60;99.90
25332;DHT22;13284;52.748;13.452;2022-08-21T04:50:14;16.70;99.90
25332;DHT22;13284;52.748;13.452;2022-08-21T04:52:39;16.60;99.90
25332;DHT22;13284;52.748;13.452;2022-08-21T04:55:05;16.60;99.90
25332;DHT22;13284;52.748;13.452;2022-08-21T04:57:31;16.60;99.90
25332;DHT22;13284;52.748;13.452;2022-08-21T04:59:56;16.60;99.90
25332;DHT22;13284;52.748;13.452;2022-08-21T05:02:22;16.60;99.90
25332;DHT22;13284;52.748;13.452;2022-08-21T05:04:50;16.60;99.90
25332;DHT22;13284;52.748;13.452;2022-08-21T05:07:22;16.60;99.90
25332;DHT22;13284;52.748;13.452;2022-08-21T05:09:52;16.70;99.90
25332;DHT22;13284;52.748;13.452;2022-08-21T05:12:17;16.70;99.90
25332;DHT22;13284;52.748;13.452;2022-08-21T05:14:44;16.60;99.90
25332;DHT22;13284;52.748;13.452;2022-08-21T05:17:09;16.60;99.90
25332;DHT22;13284;52.748;13.452;2022-08-21T05:19:35;16.60;99.90
25332;DHT22;13284;52.748;13.452;2022-08-21T05:22:01;16.60;99.90
25332;DHT22;13284;52.748;13.452;2022-08-21T05:24:27;16.60;99.90
25332;DHT22;13284;52.748;13.452;2022-08-21T05:26:53;16.70;99.90
25332;DHT22;13284;52.748;13.452;2022-08-21T05:29:19;16.70;99.90
25332;DHT22;13284;52.748;13.452;2022-08-21T05:31:46;16.60;99.90
25332;DHT22;13284;52.748;13.452;2022-08-21T05:34:13;16.70;99.90
25332;DHT22;13284;52.748;13.452;2022-08-21T05:36:41;16.80;99.90
25332;DHT22;13284;52.748;13.452;2022-08-21T05:39:06;16.80;99.90
25332;DHT22;13284;52.748;13.452;2022-08-21T05:41:32;16.80;99.90
25332;DHT22;13284;52.748;13.452;2022-08-21T05:43:57;16.90;99.90
25332;DHT22;13284;52.748;13.452;2022-08-21T05:46:23;16.90;99.90
25332;DHT22;13284;52.748;13.452;2022-08-21T05:48:48;16.90;99.90
25332;DHT22;13284;52.748;13.452;2022-08-21T05:51:15;17.00;99.90
25332;DHT22;13284;52.748;13.452;2022-08-21T05:53:41;17.00;99.90
25332;DHT22;13284;52.748;13.452;2022-08-21T05:56:08;17.10;99.90
25332;DHT22;13284;52.748;13.452;2022-08-21T05:58:34;17.20;99.90
25332;DHT22;13284;52.748;13.452;2022-08-21T06:01:01;17.20;99.90
25332;DHT22;13284;52.748;13.452;2022-08-21T06:03:31;17.20;99.90
25332;DHT22;13284;52.748;13.452;2022-08-21T06:05:57;17.30;99.90
25332;DHT22;13284;52.748;13.452;2022-08-21T06:08:23;17.20;99.90
25332;DHT22;13284;52.748;13.452;2022-08-21T06:10:50;17.30;99.90
25332;DHT22;13284;52.748;13.452;2022-08-21T06:13:20;17.40;99.90
25332;DHT22;13284;52.748;13.452;2022-08-21T06:15:46;17.30;99.90
25332;DHT22;13284;52.748;13.452;2022-08-21T06:18:11;17.20;99.90
25332;DHT22;13284;52.748;13.452;2022-08-21T06:20:37;17.20;99.90
25332;DHT22;13284;52.748;13.452;2022-08-21T06:23:04;17.30;99.90
25332;DHT22;13284;52.748;13.452;2022-08-21T06:25:30;17.40;99.90
25332;DHT22;13284;52.748;13.452;2022-08-21T06:28:03;17.30;99.90
25332;DHT22;13284;52.748;13.452;2022-08-21T06:30:29;17.40;99.90
25332;DHT22;13284;52.748;13.452;2022-08-21T06:32:55;17.40;99.90
25332;DHT22;13284;52.748;13.452;2022-08-21T06:35:20;17.50;99.90
25332;DHT22;13284;52.748;13.452;2022-08-21T06:37:46;17.60;99.90
25332;DHT22;13284;52.748;13.452;2022-08-21T06:40:12;17.60;99.90
25332;DHT22;13284;52.748;13.452;2022-08-21T06:42:37;17.80;99.90
25332;DHT22;13284;52.748;13.452;2022-08-21T06:45:04;17.90;99.90
25332;DHT22;13284;52.748;13.452;2022-08-21T06:47:29;17.90;99.90
25332;DHT22;13284;52.748;13.452;2022-08-21T06:49:55;18.00;99.90
25332;DHT22;13284;52.748;13.452;2022-08-21T06:52:20;18.10;99.90
25332;DHT22;13284;52.748;13.452;2022-08-21T06:54:46;18.10;99.90
25332;DHT22;13284;52.748;13.452;2022-08-21T06:57:11;18.00;99.90
25332;DHT22;13284;52.748;13.452;2022-08-21T06:59:37;18.20;99.90
25332;DHT22;13284;52.748;13.452;2022-08-21T07:02:03;18.20;99.90
25332;DHT22;13284;52.748;13.452;2022-08-21T07:04:28;18.40;99.90
25332;DHT22;13284;52.748;13.452;2022-08-21T07:06:54;18.50;99.90
25332;DHT22;13284;52.748;13.452;2022-08-21T07:09:20;18.50;99.90
25332;DHT22;13284;52.748;13.452;2022-08-21T07:11:51;18.60;99.90
25332;DHT22;13284;52.748;13.452;2022-08-21T07:14:17;18.80;99.90
25332;DHT22;13284;52.748;13.452;2022-08-21T07:16:42;19.00;99.90
25332;DHT22;13284;52.748;13.452;2022-08-21T07:19:08;19.00;99.90
25332;DHT22;13284;52.748;13.452;2022-08-21T07:21:33;19.10;99.90
25332;DHT22;13284;52.748;13.452;2022-08-21T07:23:59;19.20;99.90
25332;DHT22;13284;52.748;13.452;2022-08-21T07:26:25;19.20;99.90
25332;DHT22;13284;52.748;13.452;2022-08-21T07:28:51;19.30;99.90
25332;DHT22;13284;52.748;13.452;2022-08-21T07:31:18;19.40;99.90
25332;DHT22;13284;52.748;13.452;2022-08-21T07:33:45;19.40;99.90
25332;DHT22;13284;52.748;13.452;2022-08-21T07:36:11;19.50;99.90
25332;DHT22;13284;52.748;13.452;2022-08-21T07:38:37;19.50;99.90
25332;DHT22;13284;52.748;13.452;2022-08-21T07:41:08;19.50;99.90
25332;DHT22;13284;52.748;13.452;2022-08-21T07:43:37;19.70;99.90
25332;DHT22;13284;52.748;13.452;2022-08-21T07:46:03;19.70;99.90
25332;DHT22;13284;52.748;13.452;2022-08-21T07:48:28;19.90;99.90
25332;DHT22;13284;52.748;13.452;2022-08-21T07:50:54;20.10;99.90
25332;DHT22;13284;52.748;13.452;2022-08-21T07:53:20;20.30;99.90
25332;DHT22;13284;52.748;13.452;2022-08-21T07:55:46;20.40;99.90
25332;DHT22;13284;52.748;13.452;2022-08-21T07:58:12;20.40;99.90
25332;DHT22;13284;52.748;13.452;2022-08-21T08:00:38;20.50;99.90
25332;DHT22;13284;52.748;13.452;2022-08-21T08:03:04;20.60;99.90
25332;DHT22;13284;52.748;13.452;2022-08-21T08:05:30;20.80;99.90
25332;DHT22;13284;52.748;13.452;2022-08-21T08:07:57;20.80;99.90
25332;DHT22;13284;52.748;13.452;2022-08-21T08:10:24;20.80;99.90
25332;DHT22;13284;52.748;13.452;2022-08-21T08:12:50;20.90;99.90
25332;DHT22;13284;52.748;13.452;2022-08-21T08:15:20;20.70;99.90
25332;DHT22;13284;52.748;13.452;2022-08-21T08:17:46;20.70;99.90
25332;DHT22;13284;52.748;13.452;2022-08-21T08:20:14;20.60;99.90
25332;DHT22;13284;52.748;13.452;2022-08-21T08:22:40;20.60;99.90
25332;DHT22;13284;52.748;13.452;2022-08-21T08:25:08;20.60;99.90
25332;DHT22;13284;52.748;13.452;2022-08-21T08:27:34;20.80;99.90
25332;DHT22;13284;52.748;13.452;2022-08-21T08:29:59;21.00;99.90
25332;DHT22;13284;52.748;13.452;2022-08-21T08:32:25;21.10;99.90
25332;DHT22;13284;52.748;13.452;2022-08-21T08:34:51;21.20;99.90
25332;DHT22;13284;52.748;13.452;2022-08-21T08:37:19;21.70;99.90
25332;DHT22;13284;52.748;13.452;2022-08-21T08:39:45;21.80;99.90
25332;DHT22;13284;52.748;13.452;2022-08-21T08:44:42;21.90;99.90
25332;DHT22;13284;52.748;13.452;2022-08-21T08:47:09;21.80;99.90
25332;DHT22;13284;52.748;13.452;2022-08-21T08:49:40;22.20;99.90
25332;DHT22;13284;52.748;13.452;2022-08-21T08:52:25;22.50;99.90
25332;DHT22;13284;52.748;13.452;2022-08-21T08:57:39;22.60;99.90
25332;DHT22;13284;52.748;13.452;2022-08-21T09:00:12;23.00;99.90
25332;DHT22;13284;52.748;13.452;2022-08-21T09:02:39;23.00;99.90
25332;DHT22;13284;52.748;13.452;2022-08-21T09:05:06;22.80;99.90
25332;DHT22;13284;52.748;13.452;2022-08-21T09:08:15;23.00;99.90
25332;DHT22;13284;52.748;13.452;2022-08-21T09:11:04;23.20;99.90
25332;DHT22;13284;52.748;13.452;2022-08-21T09:13:53;23.40;99.90
25332;DHT22;13284;52.748;13.452;2022-08-21T09:19:24;23.10;99.90
25332;DHT22;13284;52.748;13.452;2022-08-21T09:22:19;23.00;99.90
25332;DHT22;13284;52.748;13.452;2022-08-21T09:27:39;23.30;99.90
25332;DHT22;13284;52.748;13.452;2022-08-21T09:30:06;23.40;99.90
25332;DHT22;13284;52.748;13.452;2022-08-21T09:32:34;23.50;99.90
25332;DHT22;13284;52.748;13.452;2022-08-21T09:35:15;23.40;99.90
25332;DHT22;13284;52.748;13.452;2022-08-21T09:38:03;23.30;99.90
25332;DHT22;13284;52.748;13.452;2022-08-21T09:40:45;23.50;99.90
25332;DHT22;13284;52.748;13.452;2022-08-21T09:45:39;23.80;99.90
25332;DHT22;13284;52.748;13.452;2022-08-21T09:48:25;23.70;99.90
25332;DHT22;13284;52.748;13.452;2022-08-21T09:50:52;23.70;99.90
25332;DHT22;13284;52.748;13.452;2022-08-21T09:53:29;23.60;99.90
25332;DHT22;13284;52.748;13.452;2022-08-21T09:55:59;23.50;99.90
25332;DHT22;13284;52.748;13.452;2022-08-21T09:58:46;23.20;99.90
25332;DHT22;13284;52.748;13.452;2022-08-21T10:01:24;23.10;99.90
25332;DHT22;13284;52.748;13.452;2022-08-21T10:04:07;23.00;99.90
25332;DHT22;13284;52.748;13.452;2022-08-21T10:06:33;23.10;99.90
25332;DHT22;13284;52.748;13.452;2022-08-21T10:09:12;23.40;99.90
25332;DHT22;13284;52.748;13.452;2022-08-21T10:11:39;23.60;99.90
25332;DHT22;13284;52.748;13.452;2022-08-21T10:14:28;23.70;99.90
25332;DHT22;13284;52.748;13.452;2022-08-21T10:17:33;24.00;99.90
25332;DHT22;13284;52.748;13.452;2022-08-21T10:20:11;23.90;99.90
25332;DHT22;13284;52.748;13.452;2022-08-21T10:28:32;24.20;99.90
25332;DHT22;13284;52.748;13.452;2022-08-21T10:31:13;24.40;99.90
25332;DHT22;13284;52.748;13.452;2022-08-21T10:36:41;24.10;99.90
25332;DHT22;13284;52.748;13.452;2022-08-21T10:39:17;23.80;99.90
25332;DHT22;13284;52.748;13.452;2022-08-21T10:44:35;24.50;99.90
25332;DHT22;13284;52.748;13.452;2022-08-21T10:47:08;24.70;99.90
25332;DHT22;13284;52.748;13.452;2022-08-21T10:52:42;24.90;99.90
25332;DHT22;13284;52.748;13.452;2022-08-21T10:55:22;24.50;99.90
25332;DHT22;13284;52.748;13.452;2022-08-21T10:58:08;24.50;99.90
25332;DHT22;13284;52.748;13.452;2022-08-21T11:00:51;24.50;99.90
25332;DHT22;13284;52.748;13.452;2022-08-21T11:03:39;24.30;99.90
25332;DHT22;13284;52.748;13.452;2022-08-21T11:06:14;24.50;99.90
25332;DHT22;13284;52.748;13.452;2022-08-21T11:08:54;24.30;99.90
25332;DHT22;13284;52.748;13.452;2022-08-21T11:11:32;24.10;99.90
25332;DHT22;13284;52.748;13.452;2022-08-21T11:14:20;24.70;99.90
25332;DHT22;13284;52.748;13.452;2022-08-21T11:16:54;24.80;99.90
25332;DHT22;13284;52.748;13.452;2022-08-21T11:19:47;25.10;99.90
25332;DHT22;13284;52.748;13.452;2022-08-21T11:24:56;26.00;99.90
25332;DHT22;13284;52.748;13.452;2022-08-21T11:27:36;25.60;99.90
25332;DHT22;13284;52.748;13.452;2022-08-21T11:30:05;25.50;99.90
25332;DHT22;13284;52.748;13.452;2022-08-21T11:35:33;25.80;99.90
25332;DHT22;13284;52.748;13.452;2022-08-21T11:43:39;26.50;99.90
25332;DHT22;13284;52.748;13.452;2022-08-21T11:49:00;26.20;99.90
25332;DHT22;13284;52.748;13.452;2022-08-21T11:57:07;25.80;99.90
25332;DHT22;13284;52.748;13.452;2022-08-21T11:59:41;26.30;99.90
25332;DHT22;13284;52.748;13.452;2022-08-21T12:02:20;26.10;99.90
25332;DHT22;13284;52.748;13.452;2022-08-21T12:04:52;26.40;99.90
25332;DHT22;13284;52.748;13.452;2022-08-21T12:07:35;26.60;99.90
25332;DHT22;13284;52.748;13.452;2022-08-21T12:10:05;26.90;99.90
25332;DHT22;13284;52.748;13.452;2022-08-21T12:12:36;27.40;99.90
25332;DHT22;13284;52.748;13.452;2022-08-21T12:15:17;28.20;99.90
25332;DHT22;13284;52.748;13.452;2022-08-21T12:18:05;28.00;99.10
25332;DHT22;13284;52.748;13.452;2022-08-21T12:23:26;27.80;99.00
25332;DHT22;13284;52.748;13.452;2022-08-21T12:26:22;27.80;98.90
25332;DHT22;13284;52.748;13.452;2022-08-21T12:28:48;28.80;99.80
25332;DHT22;13284;52.748;13.452;2022-08-21T12:31:27;28.50;97.40
25332;DHT22;13284;52.748;13.452;2022-08-21T12:34:01;28.80;96.30
25332;DHT22;13284;52.748;13.452;2022-08-21T12:36:45;28.50;93.90
25332;DHT22;13284;52.748;13.452;2022-08-21T12:39:24;28.10;94.30
25332;DHT22;13284;52.748;13.452;2022-08-21T12:42:15;28.80;94.40
25332;DHT22;13284;52.748;13.452;2022-08-21T12:44:55;29.50;95.90
25332;DHT22;13284;52.748;13.452;2022-08-21T12:47:36;29.80;95.40
25332;DHT22;13284;52.748;13.452;2022-08-21T12:50:17;30.60;95.20
25332;DHT22;13284;52.748;13.452;2022-08-21T12:52:59;31.20;93.80
25332;DHT22;13284;52.748;13.452;2022-08-21T12:55:31;30.90;92.60
25332;DHT22;13284;52.748;13.452;2022-08-21T12:57:57;30.50;94.30
25332;DHT22;13284;52.748;13.452;2022-08-21T13:00:25;30.50;92.40
25332;DHT22;13284;52.748;13.452;2022-08-21T13:02:52;31.20;92.60
25332;DHT22;13284;52.748;13.452;2022-08-21T13:05:27;31.30;91.60
25332;DHT22;13284;52.748;13.452;2022-08-21T13:07:53;31.80;91.40
25332;DHT22;13284;52.748;13.452;2022-08-21T13:10:37;31.70;91.40
25332;DHT22;13284;52.748;13.452;2022-08-21T13:13:07;31.10;93.00
25332;DHT22;13284;52.748;13.452;2022-08-21T13:15:37;30.10;91.80
25332;DHT22;13284;52.748;13.452;2022-08-21T13:18:05;28.90;92.50
25332;DHT22;13284;52.748;13.452;2022-08-21T13:20:36;28.30;93.50
25332;DHT22;13284;52.748;13.452;2022-08-21T13:23:20;27.90;95.10
25332;DHT22;13284;52.748;13.452;2022-08-21T13:25:45;27.50;95.10
25332;DHT22;13284;52.748;13.452;2022-08-21T13:28:13;27.60;94.90
25332;DHT22;13284;52.748;13.452;2022-08-21T13:30:45;28.00;95.40
25332;DHT22;13284;52.748;13.452;2022-08-21T13:33:13;27.60;95.20
25332;DHT22;13284;52.748;13.452;2022-08-21T13:38:30;26.90;96.50
25332;DHT22;13284;52.748;13.452;2022-08-21T13:41:05;27.30;97.10
25332;DHT22;13284;52.748;13.452;2022-08-21T13:43:36;27.40;95.50
25332;DHT22;13284;52.748;13.452;2022-08-21T13:46:07;27.80;94.80
25332;DHT22;13284;52.748;13.452;2022-08-21T13:48:34;27.90;95.60
25332;DHT22;13284;52.748;13.452;2022-08-21T13:51:05;27.40;95.40
25332;DHT22;13284;52.748;13.452;2022-08-21T13:53:35;27.30;95.30
25332;DHT22;13284;52.748;13.452;2022-08-21T13:56:02;27.30;96.00
25332;DHT22;13284;52.748;13.452;2022-08-21T13:58:41;27.50;95.10
25332;DHT22;13284;52.748;13.452;2022-08-21T14:04:05;27.40;94.40
25332;DHT22;13284;52.748;13.452;2022-08-21T14:06:36;27.60;94.80
25332;DHT22;13284;52.748;13.452;2022-08-21T14:09:33;27.10;93.70
25332;DHT22;13284;52.748;13.452;2022-08-21T14:11:59;27.00;94.40
25332;DHT22;13284;52.748;13.452;2022-08-21T14:14:30;27.10;94.20
25332;DHT22;13284;52.748;13.452;2022-08-21T14:17:04;26.90;94.70
25332;DHT22;13284;52.748;13.452;2022-08-21T14:19:39;26.50;94.10
25332;DHT22;13284;52.748;13.452;2022-08-21T14:22:29;26.40;96.10
25332;DHT22;13284;52.748;13.452;2022-08-21T14:25:11;26.20;95.40
25332;DHT22;13284;52.748;13.452;2022-08-21T14:27:44;26.20;96.10
25332;DHT22;13284;52.748;13.452;2022-08-21T14:30:35;26.10;95.70
25332;DHT22;13284;52.748;13.452;2022-08-21T14:33:02;26.10;96.00
25332;DHT22;13284;52.748;13.452;2022-08-21T14:35:28;25.80;95.60
25332;DHT22;13284;52.748;13.452;2022-08-21T14:37:54;25.80;96.30
25332;DHT22;13284;52.748;13.452;2022-08-21T14:40:22;25.60;95.60
25332;DHT22;13284;52.748;13.452;2022-08-21T14:42:48;25.40;95.40
25332;DHT22;13284;52.748;13.452;2022-08-21T14:47:47;25.90;96.00
25332;DHT22;13284;52.748;13.452;2022-08-21T14:50:13;25.80;96.20
25332;DHT22;13284;52.748;13.452;2022-08-21T14:52:39;25.80;96.30
25332;DHT22;13284;52.748;13.452;2022-08-21T14:55:07;25.80;96.60
25332;DHT22;13284;52.748;13.452;2022-08-21T14:57:33;25.90;96.70
25332;DHT22;13284;52.748;13.452;2022-08-21T14:59:59;26.10;97.00
25332;DHT22;13284;52.748;13.452;2022-08-21T15:02:25;26.00;96.40
25332;DHT22;13284;52.748;13.452;2022-08-21T15:04:51;25.90;97.50
25332;DHT22;13284;52.748;13.452;2022-08-21T15:07:17;25.70;97.20
25332;DHT22;13284;52.748;13.452;2022-08-21T15:09:43;25.60;97.30
25332;DHT22;13284;52.748;13.452;2022-08-21T15:12:08;25.90;97.90
25332;DHT22;13284;52.748;13.452;2022-08-21T15:14:38;26.00;96.30
25332;DHT22;13284;52.748;13.452;2022-08-21T15:17:06;25.90;95.90
25332;DHT22;13284;52.748;13.452;2022-08-21T15:19:32;25.90;96.90
25332;DHT22;13284;52.748;13.452;2022-08-21T15:21:58;25.50;97.30
25332;DHT22;13284;52.748;13.452;2022-08-21T15:24:23;25.30;97.10
25332;DHT22;13284;52.748;13.452;2022-08-21T15:26:49;25.40;98.00
25332;DHT22;13284;52.748;13.452;2022-08-21T15:29:15;25.40;98.90
25332;DHT22;13284;52.748;13.452;2022-08-21T15:31:59;25.50;97.90
25332;DHT22;13284;52.748;13.452;2022-08-21T15:34:27;25.60;97.90
25332;DHT22;13284;52.748;13.452;2022-08-21T15:36:54;25.80;97.70
25332;DHT22;13284;52.748;13.452;2022-08-21T15:39:20;25.80;98.10
25332;DHT22;13284;52.748;13.452;2022-08-21T15:41:46;25.60;97.50
25332;DHT22;13284;52.748;13.452;2022-08-21T15:44:12;25.30;97.60
25332;DHT22;13284;52.748;13.452;2022-08-21T15:46:39;25.40;98.50
25332;DHT22;13284;52.748;13.452;2022-08-21T15:49:05;25.20;98.80
25332;DHT22;13284;52.748;13.452;2022-08-21T15:51:32;25.10;99.50
25332;DHT22;13284;52.748;13.452;2022-08-21T15:53:58;24.90;99.90
25332;DHT22;13284;52.748;13.452;2022-08-21T15:56:37;24.90;98.90
25332;DHT22;13284;52.748;13.452;2022-08-21T15:59:14;24.90;99.90
25332;DHT22;13284;52.748;13.452;2022-08-21T16:01:40;24.80;99.40
25332;DHT22;13284;52.748;13.452;2022-08-21T16:04:07;24.80;99.90
25332;DHT22;13284;52.748;13.452;2022-08-21T16:06:33;24.50;99.90
25332;DHT22;13284;52.748;13.452;2022-08-21T16:09:00;24.70;99.90
25332;DHT22;13284;52.748;13.452;2022-08-21T16:11:26;24.60;99.90
25332;DHT22;13284;52.748;13.452;2022-08-21T16:13:52;24.70;99.90
25332;DHT22;13284;52.748;13.452;2022-08-21T16:16:20;24.40;99.90
25332;DHT22;13284;52.748;13.452;2022-08-21T16:18:47;24.40;99.90
25332;DHT22;13284;52.748;13.452;2022-08-21T16:21:14;24.30;99.90
25332;DHT22;13284;52.748;13.452;2022-08-21T16:23:39;24.20;99.90
25332;DHT22;13284;52.748;13.452;2022-08-21T16:26:07;24.20;99.90
25332;DHT22;13284;52.748;13.452;2022-08-21T16:28:34;24.20;99.90
25332;DHT22;13284;52.748;13.452;2022-08-21T16:31:01;24.20;99.90